YMGI weather

Public forecast

Using degrees Celsius for public forecast. Weather courtesy of forecast.io.

Closest aviation weather report (METAR) to Mungindi Airport

Closest report is Moree Airport, 52.2 nm (96.6 km) SE. Retrieved 2020/08/12 12:00 UTC (21 minutes ago):

YMOR 121200Z AUTO 03007KT 9999 // BKN095 OVC120 16/09 Q1014

Closest aviation forecast (TAF) to Mungindi Airport

Closest forecast is RAAF Base Amberley, 208.9 nm (386.9 km) ENE. Retrieved 2020/08/12 12:00 UTC (21 minutes ago):

TAF YAMB 121107Z 1212/1312 08004KT 9999 FEW030 FM121600 VRB02KT 9999 MIFG FEW002 FM122300 30006KT 9999 NSW FEW030 FM130400 35008KT 9999 FEW050 PROB40 1215/1222 0500 FG BKN002